createdAt,value
2022-07-28T00:00:08.394Z,23.17
2022-07-28T00:05:11.754Z,23.19
2022-07-28T00:10:14.670Z,23.17
2022-07-28T00:15:17.845Z,23.16
2022-07-28T00:20:21.450Z,23.17
2022-07-28T00:25:24.712Z,23.18
2022-07-28T00:30:27.690Z,23.16
2022-07-28T00:35:31.779Z,23.20
2022-07-28T00:40:52.900Z,23.22
2022-07-28T00:45:55.707Z,23.19
2022-07-28T00:50:58.671Z,23.18
2022-07-28T00:56:05.388Z,23.18
2022-07-28T01:01:11.972Z,23.20
2022-07-28T01:06:39.612Z,23.22
2022-07-28T01:12:02.471Z,23.20
2022-07-28T01:17:33.325Z,23.21
2022-07-28T01:22:57.050Z,23.20
2022-07-28T01:28:23.684Z,23.17
2022-07-28T01:33:55.186Z,23.08
2022-07-28T01:39:00.468Z,23.00
2022-07-28T01:44:12.255Z,22.95
2022-07-28T01:49:18.346Z,22.91
2022-07-28T01:54:24.771Z,22.89
2022-07-28T01:59:31.822Z,22.83
2022-07-28T02:04:40.353Z,22.81
2022-07-28T02:09:45.959Z,22.77
2022-07-28T02:14:51.092Z,22.74
2022-07-28T02:19:55.584Z,22.66
2022-07-28T02:24:59.223Z,22.63
2022-07-28T02:30:56.661Z,22.61
2022-07-28T02:36:10.839Z,22.57
2022-07-28T02:41:24.813Z,22.51
2022-07-28T02:46:38.378Z,22.48
2022-07-28T02:51:43.827Z,22.45
2022-07-28T02:56:53.905Z,22.42
2022-07-28T03:01:59.171Z,22.39
2022-07-28T03:07:02.491Z,22.41
2022-07-28T03:12:05.911Z,22.42
2022-07-28T03:17:09.257Z,22.40
2022-07-28T03:22:12.500Z,22.38
2022-07-28T03:27:31.441Z,22.36
2022-07-28T03:32:40.513Z,22.30
2022-07-28T03:38:07.576Z,22.23
2022-07-28T03:43:11.215Z,22.14
2022-07-28T03:48:15.120Z,22.09
2022-07-28T03:53:25.832Z,22.05
2022-07-28T03:58:29.299Z,22.04
2022-07-28T04:03:36.465Z,22.03
2022-07-28T04:08:48.123Z,22.09
2022-07-28T04:13:51.356Z,22.09
2022-07-28T04:18:54.227Z,22.15
2022-07-28T04:24:01.638Z,22.22
2022-07-28T04:29:05.249Z,22.30
2022-07-28T04:34:08.159Z,22.39
2022-07-28T04:39:13.953Z,22.48
2022-07-28T04:44:17.859Z,22.54
2022-07-28T04:49:20.976Z,22.60
2022-07-28T04:54:26.680Z,22.67
2022-07-28T04:59:29.983Z,22.82
2022-07-28T05:04:35.268Z,22.93
2022-07-28T05:09:41.064Z,23.05
2022-07-28T05:14:44.065Z,23.15
2022-07-28T05:19:46.977Z,23.28
2022-07-28T05:24:49.903Z,23.39
2022-07-28T05:29:53.959Z,23.46
2022-07-28T05:34:56.753Z,23.54
2022-07-28T05:39:59.774Z,23.60
2022-07-28T05:45:16.423Z,23.64
2022-07-28T05:50:22.825Z,23.71
2022-07-28T05:55:25.981Z,23.83
2022-07-28T06:00:29.279Z,23.90
2022-07-28T06:05:32.728Z,23.99
2022-07-28T06:10:55.228Z,24.12
2022-07-28T06:15:59.865Z,24.26
2022-07-28T06:21:02.796Z,24.36
2022-07-28T06:26:05.665Z,24.47
2022-07-28T06:31:08.492Z,24.63
2022-07-28T06:36:11.370Z,24.83
2022-07-28T06:41:14.273Z,25.01
2022-07-28T06:46:19.470Z,25.09
2022-07-28T06:51:23.358Z,25.20
2022-07-28T06:56:26.269Z,25.23
2022-07-28T07:01:29.535Z,25.35
2022-07-28T07:06:32.431Z,25.61
2022-07-28T07:11:37.188Z,25.79
2022-07-28T07:16:40.071Z,25.80
2022-07-28T07:21:43.045Z,25.80
2022-07-28T07:26:45.862Z,25.87
2022-07-28T07:31:52.824Z,26.01
2022-07-28T07:36:56.253Z,26.10
2022-07-28T07:41:59.446Z,26.12
2022-07-28T07:47:04.119Z,26.24
2022-07-28T07:52:06.974Z,26.31
2022-07-28T07:57:10.654Z,26.39
2022-07-28T08:02:13.525Z,26.52
2022-07-28T08:07:16.377Z,26.69
2022-07-28T08:12:25.102Z,26.78
2022-07-28T08:17:28.338Z,26.94
2022-07-28T08:22:31.404Z,27.14
2022-07-28T08:27:34.141Z,27.41
2022-07-28T08:32:36.939Z,27.63
2022-07-28T08:37:40.264Z,27.83
2022-07-28T08:43:00.283Z,27.99
2022-07-28T08:48:08.806Z,28.04
2022-07-28T08:53:15.187Z,28.11
2022-07-28T08:58:18.450Z,28.30
2022-07-28T09:03:21.350Z,28.27
2022-07-28T09:08:25.133Z,28.34
2022-07-28T09:13:27.900Z,28.39
2022-07-28T09:18:31.086Z,28.57
2022-07-28T09:23:49.781Z,28.67
2022-07-28T09:28:59.085Z,28.90
2022-07-28T09:34:04.806Z,29.01
2022-07-28T09:39:08.544Z,29.30
2022-07-28T09:44:22.081Z,29.47
2022-07-28T09:49:43.411Z,29.56
2022-07-28T09:55:08.056Z,29.82
2022-07-28T10:00:14.590Z,30.08
2022-07-28T10:05:19.341Z,30.09
2022-07-28T10:10:22.449Z,30.11
2022-07-28T10:15:50.656Z,30.25
2022-07-28T10:20:54.182Z,30.46
2022-07-28T10:25:58.804Z,30.65
2022-07-28T10:31:04.900Z,30.45
2022-07-28T10:36:09.682Z,30.70
2022-07-28T10:41:15.183Z,30.89
2022-07-28T10:46:18.372Z,30.89
2022-07-28T10:51:22.077Z,30.92
2022-07-28T10:56:34.369Z,30.75
2022-07-28T11:01:50.355Z,30.63
2022-07-28T11:07:13.982Z,31.04
2022-07-28T11:12:36.855Z,31.47
2022-07-28T11:17:41.764Z,31.88
2022-07-28T11:22:44.772Z,31.98
2022-07-28T11:27:51.993Z,32.04
2022-07-28T11:32:55.250Z,32.09
2022-07-28T11:38:01.477Z,32.33
2022-07-28T11:43:31.355Z,32.11
2022-07-28T11:48:42.681Z,31.93
2022-07-28T11:53:53.284Z,32.04
2022-07-28T11:59:02.361Z,31.97
2022-07-28T12:04:17.262Z,31.77
2022-07-28T12:09:25.470Z,31.95
2022-07-28T12:14:30.109Z,31.89
2022-07-28T12:19:33.709Z,31.53
2022-07-28T12:24:44.714Z,31.40
2022-07-28T12:30:02.752Z,31.48
2022-07-28T12:35:06.235Z,31.44
2022-07-28T12:40:12.829Z,31.58
2022-07-28T12:45:15.680Z,31.58
2022-07-28T12:50:20.210Z,31.42
2022-07-28T12:55:27.153Z,31.33
2022-07-28T13:00:35.893Z,31.56
2022-07-28T13:05:58.372Z,32.08
2022-07-28T13:11:02.080Z,32.66
2022-07-28T13:16:31.338Z,32.68
2022-07-28T13:21:58.548Z,33.04
2022-07-28T13:27:03.960Z,33.43
2022-07-28T13:32:08.080Z,33.80
2022-07-28T13:37:14.757Z,34.04
2022-07-28T13:42:18.633Z,34.21
2022-07-28T13:47:21.445Z,34.37
2022-07-28T13:52:32.676Z,34.33
2022-07-28T13:57:37.498Z,34.25
2022-07-28T14:02:49.241Z,34.33
2022-07-28T14:07:52.336Z,33.78
2022-07-28T14:12:55.169Z,33.11
2022-07-28T14:17:58.212Z,32.55
2022-07-28T14:23:01.926Z,32.20
2022-07-28T14:28:05.376Z,32.42
2022-07-28T14:33:08.301Z,32.72
2022-07-28T14:43:34.137Z,32.28
2022-07-28T14:48:36.962Z,32.05
2022-07-28T14:53:43.418Z,31.80
2022-07-28T14:58:55.087Z,31.61
2022-07-28T15:03:57.951Z,31.44
2022-07-28T15:09:02.234Z,31.36
2022-07-28T15:14:05.418Z,31.43
2022-07-28T15:19:08.431Z,31.87
2022-07-28T15:24:11.935Z,32.27
2022-07-28T15:29:14.978Z,32.54
2022-07-28T15:34:18.401Z,32.65
2022-07-28T15:39:23.136Z,32.67
2022-07-28T15:44:26.591Z,32.67
2022-07-28T15:49:29.524Z,32.65
2022-07-28T15:54:33.547Z,32.45
2022-07-28T15:59:49.705Z,32.52
2022-07-28T16:04:54.516Z,32.54
2022-07-28T16:09:57.477Z,32.32
2022-07-28T16:15:00.419Z,32.02
2022-07-28T16:20:04.912Z,31.69
2022-07-28T16:25:16.949Z,31.50
2022-07-28T16:30:20.614Z,31.63
2022-07-28T16:35:23.393Z,31.83
2022-07-28T16:40:26.368Z,32.00
2022-07-28T16:45:31.042Z,32.18
2022-07-28T16:50:34.609Z,32.37
2022-07-28T16:55:37.538Z,32.40
2022-07-28T17:00:40.733Z,32.32
2022-07-28T17:05:45.254Z,32.16
2022-07-28T17:10:48.469Z,31.94
2022-07-28T17:15:55.415Z,31.72
2022-07-28T17:20:58.267Z,31.48
2022-07-28T17:27:04.958Z,31.21
2022-07-28T17:31:28.369Z,30.99
2022-07-28T17:36:37.240Z,30.86
2022-07-28T17:41:41.736Z,30.70
2022-07-28T17:46:46.607Z,30.42
2022-07-28T17:51:50.182Z,30.21
2022-07-28T17:56:53.115Z,29.92
2022-07-28T18:01:56.302Z,29.69
2022-07-28T18:06:59.074Z,29.48
2022-07-28T18:12:02.017Z,29.25
2022-07-28T18:17:04.905Z,29.00
2022-07-28T18:22:07.872Z,28.74
2022-07-28T18:27:11.355Z,28.51
2022-07-28T18:32:15.284Z,28.29
2022-07-28T18:37:18.163Z,28.08
2022-07-28T18:42:21.603Z,27.89
2022-07-28T18:47:28.017Z,27.69
2022-07-28T18:52:30.848Z,27.51
2022-07-28T18:57:34.656Z,27.32
2022-07-28T19:02:39.105Z,27.23
2022-07-28T19:07:42.069Z,27.08
2022-07-28T19:12:46.465Z,26.87
2022-07-28T19:18:08.880Z,26.68
2022-07-28T19:23:12.357Z,26.50
2022-07-28T19:28:16.194Z,26.38
2022-07-28T19:33:21.363Z,26.27
2022-07-28T19:38:24.415Z,26.16
2022-07-28T19:43:27.323Z,26.01
2022-07-28T19:48:30.116Z,25.83
2022-07-28T19:53:34.526Z,25.67
2022-07-28T19:58:39.931Z,25.52
2022-07-28T20:04:00.878Z,25.36
2022-07-28T20:09:06.448Z,25.22
2022-07-28T20:14:09.183Z,25.11
2022-07-28T20:19:12.205Z,24.97
2022-07-28T20:24:15.819Z,24.87
2022-07-28T20:29:19.670Z,24.70
2022-07-28T20:34:22.544Z,24.60
2022-07-28T20:39:43.825Z,24.51
2022-07-28T20:44:47.207Z,24.43
2022-07-28T20:49:51.102Z,24.38
2022-07-28T20:54:54.961Z,24.26
2022-07-28T20:59:58.014Z,24.15
2022-07-28T21:05:01.081Z,24.01
2022-07-28T21:10:05.774Z,23.90
2022-07-28T21:15:09.642Z,23.88
2022-07-28T21:20:12.834Z,23.83
2022-07-28T21:25:15.633Z,23.70
2022-07-28T21:30:18.432Z,23.60
2022-07-28T21:35:21.228Z,23.51
2022-07-28T21:40:24.207Z,23.49
2022-07-28T21:45:27.184Z,23.49
2022-07-28T21:50:30.106Z,23.55
2022-07-28T21:55:33.235Z,23.53
2022-07-28T22:00:36.025Z,23.55
2022-07-28T22:05:38.896Z,23.55
2022-07-28T22:10:41.650Z,23.47
2022-07-28T22:15:45.595Z,23.44
2022-07-28T22:20:48.578Z,23.36
2022-07-28T22:25:51.382Z,23.30
2022-07-28T22:30:56.191Z,23.20
2022-07-28T22:35:59.099Z,23.11
2022-07-28T22:41:01.949Z,23.05
2022-07-28T22:46:04.827Z,23.04
2022-07-28T22:51:13.960Z,22.98
2022-07-28T22:56:17.303Z,22.92
2022-07-28T23:01:20.192Z,22.90
2022-07-28T23:06:23.281Z,22.91
2022-07-28T23:11:26.052Z,22.90
2022-07-28T23:16:29.015Z,22.89
2022-07-28T23:21:31.853Z,22.85
2022-07-28T23:26:34.595Z,22.79
2022-07-28T23:31:37.598Z,22.78
2022-07-28T23:36:40.533Z,22.80
2022-07-28T23:41:43.727Z,22.81
2022-07-28T23:46:46.779Z,22.81
2022-07-28T23:51:49.747Z,22.75
2022-07-28T23:56:56.493Z,22.76
